createdAt,value
2022-09-10T00:02:11.601Z,0.00
2022-09-10T00:03:11.521Z,0.00
2022-09-10T00:04:11.461Z,0.00
2022-09-10T00:05:11.435Z,0.00
2022-09-10T00:06:11.410Z,0.00
2022-09-10T00:07:11.413Z,0.00
2022-09-10T00:08:11.397Z,0.00
2022-09-10T00:09:11.368Z,0.00
2022-09-10T00:10:11.337Z,0.00
2022-09-10T00:11:11.315Z,0.00
2022-09-10T00:12:11.300Z,0.00
2022-09-10T00:13:11.299Z,0.00
2022-09-10T00:14:11.286Z,0.00
2022-09-10T00:15:11.241Z,0.00
2022-09-10T00:16:11.277Z,0.00
2022-09-10T00:17:11.197Z,0.00
2022-09-10T00:18:11.184Z,0.00
2022-09-10T00:19:11.165Z,0.00
2022-09-10T00:20:11.165Z,0.00
2022-09-10T00:21:11.126Z,0.00
2022-09-10T00:22:11.106Z,0.00
2022-09-10T00:23:11.085Z,0.00
2022-09-10T00:24:11.070Z,0.00
2022-09-10T00:25:11.066Z,0.00
2022-09-10T00:26:11.030Z,0.00
2022-09-10T00:27:11.015Z,0.00
2022-09-10T00:28:10.993Z,0.00
2022-09-10T00:29:10.976Z,0.00
2022-09-10T00:30:10.974Z,0.00
2022-09-10T00:31:11.041Z,0.00
2022-09-10T00:32:10.917Z,0.00
2022-09-10T00:33:10.899Z,0.00
2022-09-10T00:34:10.881Z,0.00
2022-09-10T00:35:10.855Z,0.00
2022-09-10T00:36:10.840Z,0.00
2022-09-10T00:37:10.839Z,0.00
2022-09-10T00:38:10.803Z,0.00
2022-09-10T00:39:10.786Z,0.00
2022-09-10T00:40:10.783Z,0.00
2022-09-10T00:41:10.742Z,0.00
2022-09-10T00:42:10.744Z,0.00
2022-09-10T00:43:10.709Z,0.00
2022-09-10T00:44:10.681Z,0.00
2022-09-10T00:45:10.670Z,0.00
2022-09-10T00:46:10.646Z,0.00
2022-09-10T00:47:10.646Z,0.00
2022-09-10T00:48:10.623Z,0.00
2022-09-10T00:49:10.593Z,0.00
2022-09-10T00:50:10.571Z,0.00
2022-09-10T00:51:10.553Z,0.00
2022-09-10T00:52:10.552Z,0.00
2022-09-10T00:53:10.514Z,0.00
2022-09-10T00:54:10.494Z,0.00
2022-09-10T00:55:10.481Z,0.00
2022-09-10T00:56:10.458Z,0.00
2022-09-10T00:57:10.442Z,0.00
2022-09-10T00:58:10.438Z,0.00
2022-09-10T00:59:10.400Z,0.00
2022-09-10T01:00:10.400Z,0.00
2022-09-10T01:01:10.406Z,0.00
2022-09-10T01:02:10.395Z,0.00
2022-09-10T01:03:10.326Z,0.00
2022-09-10T01:04:10.327Z,0.00
2022-09-10T01:05:10.288Z,0.00
2022-09-10T01:06:10.266Z,0.00
2022-09-10T01:07:10.251Z,0.00
2022-09-10T01:08:10.255Z,0.00
2022-09-10T01:09:10.226Z,0.00
2022-09-10T01:10:10.193Z,0.00
2022-09-10T01:11:10.172Z,0.00
2022-09-10T01:12:10.159Z,0.00
2022-09-10T01:13:10.133Z,0.00
2022-09-10T01:14:10.132Z,0.00
2022-09-10T01:15:10.118Z,0.00
2022-09-10T01:16:10.102Z,0.00
2022-09-10T01:17:10.052Z,0.00
2022-09-10T01:18:10.059Z,0.00
2022-09-10T01:19:10.017Z,0.00
2022-09-10T01:20:10.002Z,0.00
2022-09-10T01:21:10.014Z,0.00
2022-09-10T01:22:09.965Z,0.00
2022-09-10T01:23:12.498Z,0.00
2022-09-10T01:24:09.927Z,0.00
2022-09-10T01:25:09.902Z,0.00
2022-09-10T01:26:09.903Z,0.00
2022-09-10T01:27:09.882Z,0.00
2022-09-10T01:28:09.851Z,0.00
2022-09-10T01:29:09.829Z,0.00
2022-09-10T01:30:09.809Z,0.00
2022-09-10T01:31:09.834Z,0.00
2022-09-10T01:32:09.789Z,0.00
2022-09-10T01:33:09.751Z,0.00
2022-09-10T01:34:09.735Z,0.00
2022-09-10T01:35:09.714Z,0.00
2022-09-10T01:36:09.715Z,0.00
2022-09-10T01:37:09.693Z,0.00
2022-09-10T01:38:09.657Z,0.00
2022-09-10T01:39:09.660Z,0.00
2022-09-10T01:40:09.655Z,0.00
2022-09-10T01:41:09.599Z,0.00
2022-09-10T01:42:09.577Z,0.00
2022-09-10T01:43:09.591Z,0.00
2022-09-10T01:44:09.542Z,0.00
2022-09-10T01:45:09.524Z,0.00
2022-09-10T01:46:09.503Z,0.00
2022-09-10T01:47:09.490Z,0.00
2022-09-10T01:48:09.470Z,0.00
2022-09-10T01:49:09.471Z,0.00
2022-09-10T01:50:09.429Z,0.00
2022-09-10T01:51:09.415Z,0.00
2022-09-10T01:52:09.391Z,0.00
2022-09-10T01:53:09.372Z,0.00
2022-09-10T01:54:09.351Z,0.00
2022-09-10T01:55:09.367Z,0.00
2022-09-10T01:56:09.311Z,0.00
2022-09-10T01:57:09.293Z,0.00
2022-09-10T01:58:09.273Z,0.00
2022-09-10T01:59:09.256Z,0.00
2022-09-10T02:00:09.239Z,0.00
2022-09-10T02:01:09.264Z,0.00
2022-09-10T02:02:09.251Z,0.00
2022-09-10T02:03:09.181Z,0.00
2022-09-10T02:04:09.168Z,0.00
2022-09-10T02:05:09.140Z,0.00
2022-09-10T02:06:09.123Z,0.00
2022-09-10T02:07:09.118Z,0.00
2022-09-10T02:08:09.083Z,0.00
2022-09-10T02:09:09.066Z,0.00
2022-09-10T02:10:09.051Z,0.00
2022-09-10T02:11:09.050Z,0.00
2022-09-10T02:12:09.022Z,0.00
2022-09-10T02:13:09.005Z,0.00
2022-09-10T02:14:08.972Z,0.00
2022-09-10T02:15:08.954Z,0.00
2022-09-10T02:16:09.013Z,0.00
2022-09-10T02:17:08.911Z,0.00
2022-09-10T02:18:08.894Z,0.00
2022-09-10T02:19:08.874Z,0.00
2022-09-10T02:20:08.856Z,0.00
2022-09-10T02:21:08.839Z,0.00
2022-09-10T02:22:08.841Z,0.00
2022-09-10T02:23:08.801Z,0.00
2022-09-10T02:24:08.781Z,0.00
2022-09-10T02:25:08.762Z,0.00
2022-09-10T02:26:08.736Z,0.00
2022-09-10T02:27:08.750Z,0.00
2022-09-10T02:28:08.709Z,0.00
2022-09-10T02:29:08.691Z,0.00
2022-09-10T02:30:08.667Z,0.00
2022-09-10T02:31:08.691Z,0.00
2022-09-10T02:32:08.627Z,0.00
2022-09-10T02:33:08.627Z,0.00
2022-09-10T02:34:08.626Z,0.00
2022-09-10T02:35:08.571Z,0.00
2022-09-10T02:36:08.549Z,0.00
2022-09-10T02:37:08.536Z,0.00
2022-09-10T02:38:08.517Z,0.00
2022-09-10T02:39:08.490Z,0.00
2022-09-10T02:40:08.520Z,0.00
2022-09-10T02:41:08.451Z,0.00
2022-09-10T02:42:08.439Z,0.00
2022-09-10T02:43:08.415Z,0.00
2022-09-10T02:44:08.400Z,0.00
2022-09-10T02:45:08.376Z,0.00
2022-09-10T02:46:08.375Z,0.00
2022-09-10T02:47:08.344Z,0.00
2022-09-10T02:48:08.322Z,0.00
2022-09-10T02:49:08.312Z,0.00
2022-09-10T02:50:08.293Z,0.00
2022-09-10T02:51:08.278Z,0.00
2022-09-10T02:52:08.251Z,0.00
2022-09-10T02:53:08.223Z,0.00
2022-09-10T02:54:08.217Z,0.00
2022-09-10T02:55:08.189Z,0.00
2022-09-10T02:56:08.187Z,0.00
2022-09-10T02:57:08.146Z,0.00
2022-09-10T02:58:08.136Z,0.00
2022-09-10T02:59:08.112Z,0.00
2022-09-10T03:00:08.117Z,0.00
2022-09-10T03:01:08.122Z,0.00
2022-09-10T03:02:08.080Z,0.00
2022-09-10T03:03:08.055Z,0.00
2022-09-10T03:04:08.015Z,0.00
2022-09-10T03:05:08.040Z,0.00
2022-09-10T03:06:07.981Z,0.00
2022-09-10T03:07:07.975Z,0.00
2022-09-10T03:08:07.937Z,0.00
2022-09-10T03:09:07.923Z,0.00
2022-09-10T03:10:07.958Z,0.00
2022-09-10T03:11:07.884Z,0.00
2022-09-10T03:12:07.863Z,0.00
2022-09-10T03:13:07.846Z,0.00
2022-09-10T03:14:07.896Z,0.00
2022-09-10T03:15:07.854Z,0.00
2022-09-10T03:16:07.835Z,0.00
2022-09-10T03:17:07.768Z,0.00
2022-09-10T03:18:07.767Z,0.00
2022-09-10T03:19:07.746Z,0.00
2022-09-10T03:20:07.712Z,0.00
2022-09-10T03:21:07.739Z,0.00
2022-09-10T03:22:07.671Z,0.00
2022-09-10T03:23:07.670Z,0.00
2022-09-10T03:24:08.723Z,0.00
2022-09-10T03:25:07.619Z,0.00
2022-09-10T03:26:07.597Z,0.00
2022-09-10T03:27:07.581Z,0.00
2022-09-10T03:28:07.573Z,0.00
2022-09-10T03:29:07.543Z,0.00
2022-09-10T03:30:07.519Z,0.00
2022-09-10T03:31:07.519Z,0.00
2022-09-10T03:32:07.493Z,0.00
2022-09-10T03:33:07.468Z,0.00
2022-09-10T03:34:07.461Z,0.00
2022-09-10T03:35:07.441Z,0.00
2022-09-10T03:36:07.425Z,0.00
2022-09-10T03:37:07.393Z,0.00
2022-09-10T03:38:07.372Z,0.00
2022-09-10T03:39:07.368Z,0.00
2022-09-10T03:40:07.413Z,0.00
2022-09-10T03:41:07.314Z,0.00
2022-09-10T03:42:07.297Z,0.00
2022-09-10T03:43:07.273Z,0.00
2022-09-10T03:44:07.271Z,0.00
2022-09-10T03:45:07.243Z,0.00
2022-09-10T03:46:07.264Z,0.00
2022-09-10T03:47:07.216Z,0.00
2022-09-10T03:48:07.178Z,0.00
2022-09-10T03:49:07.177Z,0.00
2022-09-10T03:50:07.142Z,0.00
2022-09-10T03:51:07.121Z,0.00
2022-09-10T03:52:07.128Z,0.00
2022-09-10T03:53:07.093Z,0.00
2022-09-10T03:54:07.066Z,0.00
2022-09-10T03:55:07.067Z,0.00
2022-09-10T03:56:07.023Z,0.00
2022-09-10T03:57:07.005Z,0.00
2022-09-10T03:58:06.990Z,0.00
2022-09-10T03:59:06.989Z,0.00
2022-09-10T04:00:06.949Z,0.00
2022-09-10T04:01:06.967Z,0.00
2022-09-10T04:02:06.942Z,0.00
2022-09-10T04:03:06.906Z,0.00
2022-09-10T04:04:06.889Z,0.00
2022-09-10T04:05:06.856Z,0.00
2022-09-10T04:06:06.832Z,0.00
2022-09-10T04:07:06.815Z,0.00
2022-09-10T04:08:06.814Z,0.00
2022-09-10T04:09:06.798Z,0.00
2022-09-10T04:10:06.780Z,0.00
2022-09-10T04:11:06.744Z,0.00
2022-09-10T04:12:06.724Z,0.00
2022-09-10T04:13:06.702Z,0.00
2022-09-10T04:14:06.696Z,0.00
2022-09-10T04:15:06.663Z,0.00
2022-09-10T04:16:06.723Z,0.00
2022-09-10T04:17:06.623Z,0.00
2022-09-10T04:18:06.623Z,0.00
2022-09-10T04:19:06.590Z,0.00
2022-09-10T04:20:06.582Z,0.00
2022-09-10T04:21:06.549Z,0.00
2022-09-10T04:22:06.536Z,0.00
2022-09-10T04:23:06.535Z,0.00
2022-09-10T04:24:06.493Z,0.00
2022-09-10T04:25:06.475Z,0.00
2022-09-10T04:26:06.453Z,0.00
2022-09-10T04:27:06.437Z,0.00
2022-09-10T04:28:06.429Z,0.00
2022-09-10T04:29:06.413Z,0.00
2022-09-10T04:30:06.392Z,0.00
2022-09-10T04:31:06.362Z,0.00
2022-09-10T04:32:06.343Z,0.00
2022-09-10T04:33:06.323Z,0.00
2022-09-10T04:34:06.301Z,0.00
2022-09-10T04:35:06.307Z,0.00
2022-09-10T04:36:06.264Z,0.00
2022-09-10T04:37:06.243Z,0.00
2022-09-10T04:38:06.224Z,0.00
2022-09-10T04:39:06.199Z,0.00
2022-09-10T04:40:06.252Z,0.00
2022-09-10T04:41:06.186Z,0.00
2022-09-10T04:42:06.167Z,0.00
2022-09-10T04:43:06.126Z,0.00
2022-09-10T04:44:06.109Z,0.00
2022-09-10T04:45:06.091Z,0.00
2022-09-10T04:46:06.115Z,0.00
2022-09-10T04:47:06.071Z,4.00
2022-09-10T04:48:07.158Z,0.00
2022-09-10T04:49:06.014Z,0.00
2022-09-10T04:50:05.992Z,4.00
2022-09-10T04:51:16.169Z,4.00
2022-09-10T04:52:05.974Z,4.00
2022-09-10T04:53:05.954Z,4.00
2022-09-10T04:54:05.917Z,4.00
2022-09-10T04:55:05.901Z,4.00
2022-09-10T04:56:05.880Z,4.00
2022-09-10T04:57:05.862Z,4.00
2022-09-10T04:58:05.862Z,4.00
2022-09-10T04:59:05.836Z,4.00
2022-09-10T05:00:05.801Z,8.00
2022-09-10T05:01:05.814Z,8.00
2022-09-10T05:02:05.772Z,8.00
2022-09-10T05:03:05.743Z,8.00
2022-09-10T05:04:05.742Z,12.00
2022-09-10T05:05:05.704Z,12.00
2022-09-10T05:06:05.699Z,16.00
2022-09-10T05:07:05.663Z,16.00
2022-09-10T05:08:05.649Z,16.00
2022-09-10T05:09:05.645Z,20.00
2022-09-10T05:10:05.604Z,20.00
2022-09-10T05:11:05.591Z,24.00
2022-09-10T05:12:05.565Z,28.00
2022-09-10T05:13:05.558Z,24.00
2022-09-10T05:14:05.535Z,28.00
2022-09-10T05:15:05.529Z,28.00
2022-09-10T05:16:05.582Z,28.00
2022-09-10T05:17:05.477Z,32.00
2022-09-10T05:18:05.450Z,36.00
2022-09-10T05:19:05.479Z,36.00
2022-09-10T05:20:05.433Z,40.00
2022-09-10T05:21:05.422Z,40.00
2022-09-10T05:22:05.377Z,40.00
2022-09-10T05:23:05.356Z,40.00
2022-09-10T05:24:05.360Z,44.00
2022-09-10T05:25:05.317Z,40.00
2022-09-10T05:26:05.314Z,44.00
2022-09-10T05:27:05.285Z,40.00
2022-09-10T05:28:05.279Z,44.00
2022-09-10T05:29:05.242Z,48.00
2022-09-10T05:30:05.218Z,56.00
2022-09-10T05:31:05.203Z,68.00
2022-09-10T05:32:05.197Z,80.00
2022-09-10T05:33:05.184Z,92.00
2022-09-10T05:34:05.141Z,100.00
2022-09-10T05:35:05.134Z,100.00
2022-09-10T05:36:05.103Z,92.00
2022-09-10T05:37:05.083Z,96.00
2022-09-10T05:38:05.065Z,108.00
2022-09-10T05:39:05.067Z,144.00
2022-09-10T05:40:05.054Z,172.00
2022-09-10T05:41:05.009Z,208.00
2022-09-10T05:42:04.986Z,252.00
2022-09-10T05:43:04.964Z,284.00
2022-09-10T05:44:04.974Z,324.00
2022-09-10T05:45:04.931Z,328.00
2022-09-10T05:46:04.983Z,316.00
2022-09-10T05:47:04.891Z,296.00
2022-09-10T05:48:04.877Z,300.00
2022-09-10T05:49:04.861Z,296.00
2022-09-10T05:50:04.855Z,292.00
2022-09-10T05:51:04.811Z,288.00
2022-09-10T05:52:04.793Z,264.00
2022-09-10T05:53:04.775Z,224.00
2022-09-10T05:54:04.767Z,192.00
2022-09-10T05:55:04.755Z,164.00
2022-09-10T05:56:04.730Z,144.00
2022-09-10T05:57:04.696Z,132.00
2022-09-10T05:58:04.681Z,116.00
2022-09-10T05:59:04.669Z,104.00
2022-09-10T06:00:04.695Z,100.00
2022-09-10T06:01:04.620Z,92.00
2022-09-10T06:02:04.673Z,92.00
2022-09-10T06:03:04.670Z,92.00
2022-09-10T06:04:04.579Z,92.00
2022-09-10T06:05:04.543Z,88.00
2022-09-10T06:06:04.542Z,88.00
2022-09-10T06:07:04.507Z,84.00
2022-09-10T06:08:08.549Z,88.00
2022-09-10T06:09:04.462Z,88.00
2022-09-10T06:10:04.447Z,88.00
2022-09-10T06:11:04.441Z,84.00
2022-09-10T06:12:04.412Z,92.00
2022-09-10T06:13:04.397Z,104.00
2022-09-10T06:14:04.369Z,112.00
2022-09-10T06:15:04.347Z,128.00
2022-09-10T06:16:04.387Z,144.00
2022-09-10T06:17:04.313Z,160.00
2022-09-10T06:18:04.315Z,172.00
2022-09-10T06:19:04.269Z,184.00
2022-09-10T06:20:04.257Z,188.00
2022-09-10T06:21:04.248Z,212.00
2022-09-10T06:22:04.213Z,208.00
2022-09-10T06:23:04.195Z,236.00
2022-09-10T06:24:04.197Z,252.00
2022-09-10T06:25:04.162Z,280.00
2022-09-10T06:26:04.148Z,304.00
2022-09-10T06:27:04.114Z,316.00
2022-09-10T06:28:04.100Z,324.00
2022-09-10T06:29:04.099Z,332.00
2022-09-10T06:30:04.075Z,332.00
2022-09-10T06:31:04.139Z,352.00
2022-09-10T06:32:04.021Z,356.00
2022-09-10T06:33:03.998Z,344.00
2022-09-10T06:34:04.003Z,328.00
2022-09-10T06:35:03.976Z,312.00
2022-09-10T06:36:03.966Z,320.00
2022-09-10T06:37:03.923Z,332.00
2022-09-10T06:38:03.902Z,340.00
2022-09-10T06:39:03.886Z,344.00
2022-09-10T06:40:03.951Z,364.00
2022-09-10T06:41:03.847Z,400.00
2022-09-10T06:42:03.845Z,436.00
2022-09-10T06:43:03.812Z,464.00
2022-09-10T06:44:03.799Z,496.00
2022-09-10T06:45:03.799Z,528.00
2022-09-10T06:46:03.779Z,552.00
2022-09-10T06:47:42.757Z,576.00
2022-09-10T06:48:38.366Z,592.00
2022-09-10T06:49:03.717Z,612.00
2022-09-10T06:50:03.691Z,616.00
2022-09-10T06:51:03.656Z,620.00
2022-09-10T06:52:03.651Z,612.00
2022-09-10T06:53:03.624Z,612.00
2022-09-10T06:54:03.592Z,588.00
2022-09-10T06:55:03.579Z,556.00
2022-09-10T06:56:03.557Z,516.00
2022-09-10T06:57:03.556Z,476.00
2022-09-10T06:58:03.514Z,436.00
2022-09-10T06:59:03.497Z,416.00
2022-09-10T07:00:03.477Z,384.00
2022-09-10T07:01:03.498Z,356.00
2022-09-10T07:02:03.494Z,332.00
2022-09-10T07:03:03.416Z,312.00
2022-09-10T07:04:03.396Z,296.00
2022-09-10T07:05:03.382Z,280.00
2022-09-10T07:06:03.350Z,260.00
2022-09-10T07:07:03.341Z,252.00
2022-09-10T07:08:03.342Z,248.00
2022-09-10T07:09:03.322Z,248.00
2022-09-10T07:10:03.302Z,252.00
2022-09-10T07:11:03.265Z,256.00
2022-09-10T07:12:03.245Z,264.00
2022-09-10T07:13:03.257Z,276.00
2022-09-10T07:14:03.210Z,296.00
2022-09-10T07:15:03.190Z,320.00
2022-09-10T07:16:03.211Z,352.00
2022-09-10T07:17:03.148Z,396.00
2022-09-10T07:19:45.125Z,528.00
2022-09-10T07:20:45.083Z,580.00
2022-09-10T07:21:45.081Z,612.00
2022-09-10T07:22:45.070Z,648.00
2022-09-10T07:23:45.046Z,664.00
2022-09-10T07:24:45.008Z,692.00
2022-09-10T07:25:44.998Z,712.00
2022-09-10T07:26:44.972Z,720.00
2022-09-10T07:27:44.952Z,736.00
2022-09-10T07:28:44.934Z,772.00
2022-09-10T07:29:44.934Z,812.00
2022-09-10T07:30:44.929Z,848.00
2022-09-10T07:31:45.801Z,900.00
2022-09-10T07:32:44.854Z,896.00
2022-09-10T07:33:44.838Z,852.00
2022-09-10T07:34:44.823Z,820.00
2022-09-10T07:35:44.814Z,792.00
2022-09-10T07:36:44.781Z,748.00
2022-09-10T07:37:44.752Z,740.00
2022-09-10T07:38:44.739Z,688.00
2022-09-10T07:39:44.774Z,704.00
2022-09-10T07:40:44.699Z,696.00
2022-09-10T07:41:44.704Z,736.00
2022-09-10T07:42:44.664Z,644.00
2022-09-10T07:43:44.641Z,572.00
2022-09-10T07:44:44.620Z,580.00
2022-09-10T07:45:44.625Z,664.00
2022-09-10T07:46:44.592Z,852.00
2022-09-10T07:47:44.583Z,1024.00
2022-09-10T07:48:44.541Z,1140.00
2022-09-10T07:49:44.528Z,1208.00
2022-09-10T07:50:44.514Z,1220.00
2022-09-10T07:51:44.508Z,1340.00
2022-09-10T07:52:44.469Z,1324.00
2022-09-10T07:53:50.261Z,1336.00
2022-09-10T07:54:44.431Z,1380.00
2022-09-10T07:55:44.420Z,1228.00
2022-09-10T07:56:44.425Z,1104.00
2022-09-10T07:57:44.374Z,1032.00
2022-09-10T07:58:44.366Z,1004.00
2022-09-10T07:59:44.332Z,1088.00
2022-09-10T08:00:44.309Z,1132.00
2022-09-10T08:01:44.403Z,1184.00
2022-09-10T08:02:44.286Z,1208.00
2022-09-10T08:03:44.256Z,1204.00
2022-09-10T08:04:44.253Z,1184.00
2022-09-10T08:05:44.235Z,1276.00
2022-09-10T08:06:44.199Z,1312.00
2022-09-10T08:07:44.178Z,1336.00
2022-09-10T08:08:44.187Z,1376.00
2022-09-10T08:09:44.153Z,1448.00
2022-09-10T08:10:44.139Z,1464.00
2022-09-10T08:11:44.122Z,1480.00
2022-09-10T08:12:44.087Z,1504.00
2022-09-10T08:13:44.084Z,1448.00
2022-09-10T08:14:44.049Z,1444.00
2022-09-10T08:15:44.089Z,1448.00
2022-09-10T08:16:44.631Z,1312.00
2022-09-10T08:17:43.990Z,1196.00
2022-09-10T08:18:43.976Z,1252.00
2022-09-10T08:19:43.950Z,1484.00
2022-09-10T08:20:43.934Z,1656.00
2022-09-10T08:21:43.943Z,1792.00
2022-09-10T08:22:43.982Z,1804.00
2022-09-10T08:23:43.879Z,1784.00
2022-09-10T08:24:43.991Z,1608.00
2022-09-10T08:25:43.828Z,1584.00
2022-09-10T08:26:43.824Z,1748.00
2022-09-10T08:27:43.809Z,1648.00
2022-09-10T08:28:43.784Z,1468.00
2022-09-10T08:29:43.764Z,1700.00
2022-09-10T08:30:43.803Z,1964.00
2022-09-10T08:31:43.729Z,2064.00
2022-09-10T08:32:43.706Z,2180.00
2022-09-10T08:33:43.684Z,1784.00
2022-09-10T08:34:43.683Z,1548.00
2022-09-10T08:35:43.655Z,1528.00
2022-09-10T08:36:43.650Z,1452.00
2022-09-10T08:37:43.616Z,1076.00
2022-09-10T08:38:43.601Z,932.00
2022-09-10T08:39:43.626Z,1100.00
2022-09-10T08:40:43.556Z,984.00
2022-09-10T08:41:43.557Z,968.00
2022-09-10T08:42:43.516Z,1212.00
2022-09-10T08:43:43.502Z,1140.00
2022-09-10T08:44:43.477Z,944.00
2022-09-10T08:45:43.546Z,684.00
2022-09-10T08:46:43.461Z,704.00
2022-09-10T08:47:43.430Z,592.00
2022-09-10T08:48:43.406Z,528.00
2022-09-10T08:49:43.388Z,416.00
2022-09-10T08:50:43.365Z,280.00
2022-09-10T08:51:43.344Z,352.00
2022-09-10T08:52:43.363Z,476.00
2022-09-10T08:53:43.309Z,468.00
2022-09-10T08:54:43.290Z,380.00
2022-09-10T08:55:46.027Z,368.00
2022-09-10T08:56:43.273Z,408.00
2022-09-10T08:57:43.235Z,420.00
2022-09-10T08:58:43.235Z,424.00
2022-09-10T08:59:43.219Z,428.00
2022-09-10T09:00:43.179Z,352.00
2022-09-10T09:01:43.220Z,292.00
2022-09-10T09:02:49.369Z,296.00
2022-09-10T09:03:44.772Z,332.00
2022-09-10T09:04:43.100Z,352.00
2022-09-10T09:05:43.081Z,336.00
2022-09-10T09:06:43.060Z,420.00
2022-09-10T09:07:43.048Z,384.00
2022-09-10T09:08:43.022Z,384.00
2022-09-10T09:09:43.033Z,512.00
2022-09-10T09:10:42.986Z,624.00
2022-09-10T09:11:42.964Z,504.00
2022-09-10T09:12:44.675Z,544.00
2022-09-10T09:15:14.676Z,508.00
2022-09-10T09:16:14.636Z,488.00
2022-09-10T09:17:14.615Z,504.00
2022-09-10T09:18:14.597Z,420.00
2022-09-10T09:19:14.577Z,420.00
2022-09-10T09:20:14.575Z,464.00
2022-09-10T09:21:14.540Z,416.00
2022-09-10T09:22:14.524Z,392.00
2022-09-10T09:23:14.495Z,444.00
2022-09-10T09:24:14.477Z,432.00
2022-09-10T09:25:14.476Z,516.00
2022-09-10T09:26:14.443Z,580.00
2022-09-10T09:27:14.415Z,656.00
2022-09-10T09:28:14.398Z,892.00
2022-09-10T09:29:14.378Z,1480.00
2022-09-10T09:30:14.387Z,1592.00
2022-09-10T09:31:14.416Z,1952.00
2022-09-10T09:32:14.349Z,1544.00
2022-09-10T09:33:14.305Z,1136.00
2022-09-10T09:34:14.284Z,944.00
2022-09-10T09:35:14.274Z,464.00
2022-09-10T09:36:14.247Z,384.00
2022-09-10T09:37:14.246Z,464.00
2022-09-10T09:38:14.218Z,520.00
2022-09-10T09:39:14.197Z,552.00
2022-09-10T09:40:14.179Z,716.00
2022-09-10T09:41:14.169Z,860.00
2022-09-10T09:42:14.127Z,816.00
2022-09-10T09:43:14.113Z,772.00
2022-09-10T09:44:14.091Z,704.00
2022-09-10T09:45:14.095Z,812.00
2022-09-10T09:46:14.158Z,684.00
2022-09-10T09:47:14.031Z,668.00
2022-09-10T09:48:14.014Z,760.00
2022-09-10T09:49:13.994Z,692.00
2022-09-10T09:50:13.999Z,708.00
2022-09-10T09:51:13.954Z,996.00
2022-09-10T09:52:13.937Z,1064.00
2022-09-10T09:53:13.917Z,1120.00
2022-09-10T09:55:15.408Z,856.00
2022-09-10T09:56:13.873Z,764.00
2022-09-10T09:57:13.842Z,648.00
2022-09-10T09:58:13.826Z,696.00
2022-09-10T09:59:15.154Z,840.00
2022-09-10T10:00:13.819Z,1004.00
2022-09-10T10:01:13.780Z,796.00
2022-09-10T10:02:13.776Z,656.00
2022-09-10T10:03:13.724Z,696.00
2022-09-10T10:04:13.707Z,632.00
2022-09-10T10:05:13.706Z,588.00
2022-09-10T10:06:13.696Z,472.00
2022-09-10T10:07:13.647Z,464.00
2022-09-10T10:08:13.630Z,500.00
2022-09-10T10:09:13.611Z,496.00
2022-09-10T10:10:13.609Z,412.00
2022-09-10T10:11:13.573Z,448.00
2022-09-10T10:12:13.555Z,488.00
2022-09-10T10:13:13.539Z,576.00
2022-09-10T10:14:13.531Z,560.00
2022-09-10T10:15:13.493Z,600.00
2022-09-10T10:16:13.519Z,644.00
2022-09-10T10:17:13.455Z,828.00
2022-09-10T10:18:13.440Z,872.00
2022-09-10T10:19:13.418Z,816.00
2022-09-10T10:20:13.415Z,904.00
2022-09-10T10:21:13.387Z,1096.00
2022-09-10T10:22:13.367Z,1268.00
2022-09-10T10:23:13.341Z,1352.00
2022-09-10T10:24:13.333Z,1448.00
2022-09-10T10:25:13.316Z,1252.00
2022-09-10T10:26:13.318Z,1196.00
2022-09-10T10:27:13.280Z,1204.00
2022-09-10T10:28:13.244Z,1432.00
2022-09-10T10:29:13.238Z,1316.00
2022-09-10T10:30:13.207Z,1516.00
2022-09-10T10:31:13.282Z,1540.00
2022-09-10T10:32:13.165Z,1264.00
2022-09-10T10:33:13.151Z,1016.00
2022-09-10T10:34:13.129Z,740.00
2022-09-10T10:35:13.162Z,536.00
2022-09-10T10:36:13.088Z,632.00
2022-09-10T10:37:13.092Z,852.00
2022-09-10T10:38:13.060Z,1080.00
2022-09-10T10:39:13.035Z,1084.00
2022-09-10T10:40:13.075Z,1336.00
2022-09-10T10:41:12.998Z,1372.00
2022-09-10T10:42:12.995Z,1304.00
2022-09-10T10:43:12.963Z,1576.00
2022-09-10T10:44:12.936Z,1304.00
2022-09-10T10:45:12.918Z,1396.00
2022-09-10T10:46:12.917Z,1352.00
2022-09-10T10:47:12.958Z,1408.00
2022-09-10T10:48:12.890Z,1204.00
2022-09-10T10:49:12.841Z,1004.00
2022-09-10T10:50:12.825Z,576.00
2022-09-10T10:51:12.805Z,296.00
2022-09-10T10:52:12.788Z,328.00
2022-09-10T10:53:12.769Z,392.00
2022-09-10T10:54:12.767Z,408.00
2022-09-10T10:55:12.746Z,540.00
2022-09-10T10:56:12.715Z,716.00
2022-09-10T10:57:12.693Z,920.00
2022-09-10T10:58:12.673Z,876.00
2022-09-10T10:59:12.654Z,544.00
2022-09-10T11:00:12.656Z,516.00
2022-09-10T11:01:12.652Z,628.00
2022-09-10T11:02:12.705Z,724.00
2022-09-10T11:03:12.595Z,936.00
2022-09-10T11:04:12.562Z,1304.00
2022-09-10T11:05:12.538Z,1440.00
2022-09-10T11:06:12.551Z,1324.00
2022-09-10T11:07:12.509Z,1340.00
2022-09-10T11:08:12.485Z,1632.00
2022-09-10T11:09:12.473Z,1288.00
2022-09-10T11:10:12.451Z,928.00
2022-09-10T11:11:12.460Z,952.00
2022-09-10T11:12:12.408Z,1120.00
2022-09-10T11:13:12.392Z,1460.00
2022-09-10T11:14:12.376Z,1544.00
2022-09-10T11:15:12.348Z,1924.00
2022-09-10T11:16:12.356Z,1960.00
2022-09-10T11:17:12.322Z,2232.00
2022-09-10T11:18:12.292Z,2884.00
2022-09-10T11:19:12.287Z,2996.00
2022-09-10T11:20:27.845Z,2880.00
2022-09-10T11:21:12.268Z,3324.00
2022-09-10T11:22:12.235Z,3284.00
2022-09-10T11:23:12.204Z,2680.00
2022-09-10T11:24:16.816Z,3148.00
2022-09-10T11:25:12.161Z,3704.00
2022-09-10T11:26:12.142Z,2636.00
2022-09-10T11:27:12.144Z,2392.00
2022-09-10T11:28:12.105Z,1964.00
2022-09-10T11:29:12.088Z,1304.00
2022-09-10T11:30:12.072Z,1504.00
2022-09-10T11:31:12.098Z,2004.00
2022-09-10T11:32:12.028Z,1904.00
2022-09-10T11:33:12.031Z,2008.00
2022-09-10T11:34:12.009Z,2136.00
2022-09-10T11:35:11.979Z,2316.00
2022-09-10T11:36:11.956Z,2388.00
2022-09-10T11:37:11.962Z,2960.00
2022-09-10T11:38:12.031Z,2724.00
2022-09-10T11:39:11.903Z,2416.00
2022-09-10T11:40:11.923Z,3196.00
2022-09-10T11:41:11.869Z,3408.00
2022-09-10T11:42:11.863Z,3264.00
2022-09-10T11:43:11.832Z,3216.00
2022-09-10T11:44:11.823Z,3584.00
2022-09-10T11:45:11.795Z,3756.00
2022-09-10T11:46:11.815Z,3248.00
2022-09-10T11:47:11.755Z,3644.00
2022-09-10T11:48:11.747Z,4084.00
2022-09-10T11:49:11.734Z,3544.00
2022-09-10T11:50:11.701Z,2740.00
2022-09-10T11:51:11.679Z,2576.00
2022-09-10T11:52:11.668Z,2652.00
2022-09-10T11:53:11.646Z,2532.00
2022-09-10T11:54:11.652Z,2392.00
2022-09-10T11:55:11.639Z,2500.00
2022-09-10T11:56:11.592Z,2564.00
2022-09-10T11:57:11.568Z,3560.00
2022-09-10T11:58:11.564Z,3956.00
2022-09-10T11:59:11.540Z,3616.00
2022-09-10T12:00:11.545Z,3052.00
2022-09-10T12:01:11.524Z,2868.00
2022-09-10T12:02:11.551Z,3184.00
2022-09-10T12:03:11.522Z,2868.00
2022-09-10T12:04:11.446Z,2828.00
2022-09-10T12:05:11.435Z,2848.00
2022-09-10T12:06:11.433Z,2712.00
2022-09-10T12:07:11.397Z,2876.00
2022-09-10T12:08:11.400Z,3668.00
2022-09-10T12:09:11.369Z,3816.00
2022-09-10T12:10:14.419Z,4404.00
2022-09-10T12:11:11.330Z,4576.00
2022-09-10T12:12:11.339Z,4768.00
2022-09-10T12:13:11.301Z,3684.00
2022-09-10T12:14:11.292Z,3256.00
2022-09-10T12:15:11.253Z,2916.00
2022-09-10T12:16:11.297Z,3104.00
2022-09-10T12:17:11.238Z,3308.00
2022-09-10T12:18:11.309Z,3168.00
2022-09-10T12:19:11.176Z,2472.00
2022-09-10T12:20:11.154Z,1704.00
2022-09-10T12:21:11.145Z,1176.00
2022-09-10T12:22:11.131Z,1116.00
2022-09-10T12:23:11.113Z,1336.00
2022-09-10T12:24:11.105Z,1260.00
2022-09-10T12:25:11.090Z,1136.00
2022-09-10T12:26:11.056Z,1068.00
2022-09-10T12:27:11.035Z,1292.00
2022-09-10T12:28:11.018Z,1764.00
2022-09-10T12:29:11.019Z,1932.00
2022-09-10T12:30:10.980Z,1688.00
2022-09-10T12:31:10.986Z,1704.00
2022-09-10T12:32:10.957Z,1984.00
2022-09-10T12:33:10.948Z,2564.00
2022-09-10T12:34:10.913Z,3312.00
2022-09-10T12:35:10.892Z,4312.00
2022-09-10T12:36:10.871Z,4192.00
2022-09-10T12:37:10.887Z,3192.00
2022-09-10T12:38:10.837Z,3688.00
2022-09-10T12:39:10.845Z,3696.00
2022-09-10T12:40:13.166Z,4304.00
2022-09-10T12:41:10.801Z,4288.00
2022-09-10T12:42:10.763Z,3900.00
2022-09-10T12:43:10.746Z,3920.00
2022-09-10T12:44:10.725Z,4048.00
2022-09-10T12:45:10.708Z,4468.00
2022-09-10T12:46:10.749Z,6956.00
2022-09-10T12:47:10.708Z,4952.00
2022-09-10T12:48:10.656Z,4548.00